sensor_id;sensor_type;location;lat;lon;timestamp;temperature;humidity
64855;DHT22;51321;50.428;8.378;2023-04-29T00:00:04;11.00;99.90
64855;DHT22;51321;50.428;8.378;2023-04-29T00:02:51;11.10;99.90
64855;DHT22;51321;50.428;8.378;2023-04-29T00:05:31;11.10;99.90
64855;DHT22;51321;50.428;8.378;2023-04-29T00:08:13;11.00;99.90
64855;DHT22;51321;50.428;8.378;2023-04-29T00:10:53;11.10;99.90
64855;DHT22;51321;50.428;8.378;2023-04-29T00:13:34;11.20;99.90
64855;DHT22;51321;50.428;8.378;2023-04-29T00:16:14;11.20;99.90
64855;DHT22;51321;50.428;8.378;2023-04-29T00:18:55;11.20;99.90
64855;DHT22;51321;50.428;8.378;2023-04-29T00:21:35;11.30;99.90
64855;DHT22;51321;50.428;8.378;2023-04-29T00:24:17;11.30;99.90
64855;DHT22;51321;50.428;8.378;2023-04-29T00:26:58;11.30;99.90
64855;DHT22;51321;50.428;8.378;2023-04-29T00:29:40;11.30;99.90
64855;DHT22;51321;50.428;8.378;2023-04-29T00:32:21;11.30;99.90
64855;DHT22;51321;50.428;8.378;2023-04-29T00:35:02;11.30;99.90
64855;DHT22;51321;50.428;8.378;2023-04-29T00:37:42;11.40;99.90
64855;DHT22;51321;50.428;8.378;2023-04-29T00:40:25;11.50;99.90
64855;DHT22;51321;50.428;8.378;2023-04-29T00:43:06;11.50;99.90
64855;DHT22;51321;50.428;8.378;2023-04-29T00:45:47;11.50;99.90
64855;DHT22;51321;50.428;8.378;2023-04-29T00:48:28;11.50;99.90
64855;DHT22;51321;50.428;8.378;2023-04-29T00:51:09;11.50;99.90
64855;DHT22;51321;50.428;8.378;2023-04-29T00:53:49;11.50;99.90
64855;DHT22;51321;50.428;8.378;2023-04-29T00:56:31;11.50;99.90
64855;DHT22;51321;50.428;8.378;2023-04-29T00:59:13;11.50;99.90
64855;DHT22;51321;50.428;8.378;2023-04-29T01:01:55;11.60;99.90
64855;DHT22;51321;50.428;8.378;2023-04-29T01:04:35;11.70;99.90
64855;DHT22;51321;50.428;8.378;2023-04-29T01:07:20;11.70;99.90
64855;DHT22;51321;50.428;8.378;2023-04-29T01:10:04;11.70;99.90
64855;DHT22;51321;50.428;8.378;2023-04-29T01:12:49;11.80;99.90
64855;DHT22;51321;50.428;8.378;2023-04-29T01:15:38;11.80;99.90
64855;DHT22;51321;50.428;8.378;2023-04-29T01:18:19;11.90;99.90
64855;DHT22;51321;50.428;8.378;2023-04-29T01:21:03;11.80;99.90
64855;DHT22;51321;50.428;8.378;2023-04-29T01:23:44;11.80;99.90
64855;DHT22;51321;50.428;8.378;2023-04-29T01:26:26;11.90;99.90
64855;DHT22;51321;50.428;8.378;2023-04-29T01:29:21;11.90;99.90
64855;DHT22;51321;50.428;8.378;2023-04-29T01:32:04;12.00;99.90
64855;DHT22;51321;50.428;8.378;2023-04-29T01:34:48;12.10;99.90
64855;DHT22;51321;50.428;8.378;2023-04-29T01:37:32;12.10;99.90
64855;DHT22;51321;50.428;8.378;2023-04-29T01:40:17;12.10;99.90
64855;DHT22;51321;50.428;8.378;2023-04-29T01:43:16;12.10;99.90
64855;DHT22;51321;50.428;8.378;2023-04-29T01:46:00;12.10;99.90
64855;DHT22;51321;50.428;8.378;2023-04-29T01:48:42;12.10;99.90
64855;DHT22;51321;50.428;8.378;2023-04-29T01:51:23;12.10;99.90
64855;DHT22;51321;50.428;8.378;2023-04-29T01:54:03;12.20;99.90
64855;DHT22;51321;50.428;8.378;2023-04-29T01:56:46;12.30;99.90
64855;DHT22;51321;50.428;8.378;2023-04-29T01:59:34;12.30;99.90
64855;DHT22;51321;50.428;8.378;2023-04-29T02:02:24;12.20;99.90
64855;DHT22;51321;50.428;8.378;2023-04-29T02:05:13;12.20;99.90
64855;DHT22;51321;50.428;8.378;2023-04-29T02:08:04;12.30;99.90
64855;DHT22;51321;50.428;8.378;2023-04-29T02:10:52;12.30;99.90
64855;DHT22;51321;50.428;8.378;2023-04-29T02:13:55;12.30;99.90
64855;DHT22;51321;50.428;8.378;2023-04-29T02:16:35;12.20;99.90
64855;DHT22;51321;50.428;8.378;2023-04-29T02:19:19;12.20;99.90
64855;DHT22;51321;50.428;8.378;2023-04-29T02:21:59;12.20;99.90
64855;DHT22;51321;50.428;8.378;2023-04-29T02:24:40;12.20;99.90
64855;DHT22;51321;50.428;8.378;2023-04-29T02:27:20;12.20;99.90
64855;DHT22;51321;50.428;8.378;2023-04-29T02:30:03;12.10;99.90
64855;DHT22;51321;50.428;8.378;2023-04-29T02:32:44;12.00;99.90
64855;DHT22;51321;50.428;8.378;2023-04-29T02:35:27;12.10;99.90
64855;DHT22;51321;50.428;8.378;2023-04-29T02:38:08;12.10;99.90
64855;DHT22;51321;50.428;8.378;2023-04-29T02:40:49;12.20;99.90
64855;DHT22;51321;50.428;8.378;2023-04-29T02:43:30;12.20;99.90
64855;DHT22;51321;50.428;8.378;2023-04-29T02:46:13;12.10;99.90
64855;DHT22;51321;50.428;8.378;2023-04-29T02:48:53;12.10;99.90
64855;DHT22;51321;50.428;8.378;2023-04-29T02:51:33;12.10;99.90
64855;DHT22;51321;50.428;8.378;2023-04-29T02:54:14;12.00;99.90
64855;DHT22;51321;50.428;8.378;2023-04-29T02:56:55;12.10;99.90
64855;DHT22;51321;50.428;8.378;2023-04-29T02:59:37;12.10;99.90
64855;DHT22;51321;50.428;8.378;2023-04-29T03:02:19;12.10;99.90
64855;DHT22;51321;50.428;8.378;2023-04-29T03:05:04;12.00;99.90
64855;DHT22;51321;50.428;8.378;2023-04-29T03:07:44;12.00;99.90
64855;DHT22;51321;50.428;8.378;2023-04-29T03:10:24;12.00;99.90
64855;DHT22;51321;50.428;8.378;2023-04-29T03:13:05;12.10;99.90
64855;DHT22;51321;50.428;8.378;2023-04-29T03:15:46;12.10;99.90
64855;DHT22;51321;50.428;8.378;2023-04-29T03:18:28;12.10;99.90
64855;DHT22;51321;50.428;8.378;2023-04-29T03:21:08;12.00;99.90
64855;DHT22;51321;50.428;8.378;2023-04-29T03:23:49;12.00;99.90
64855;DHT22;51321;50.428;8.378;2023-04-29T03:26:35;11.90;99.90
64855;DHT22;51321;50.428;8.378;2023-04-29T03:29:17;11.90;99.90
64855;DHT22;51321;50.428;8.378;2023-04-29T03:31:57;11.80;99.90
64855;DHT22;51321;50.428;8.378;2023-04-29T03:34:39;11.80;99.90
64855;DHT22;51321;50.428;8.378;2023-04-29T03:37:38;11.70;99.90
64855;DHT22;51321;50.428;8.378;2023-04-29T03:40:35;11.70;99.90
64855;DHT22;51321;50.428;8.378;2023-04-29T03:43:16;11.60;99.90
64855;DHT22;51321;50.428;8.378;2023-04-29T03:45:57;11.60;99.90
64855;DHT22;51321;50.428;8.378;2023-04-29T03:48:38;11.60;99.90
64855;DHT22;51321;50.428;8.378;2023-04-29T03:51:20;11.60;99.90
64855;DHT22;51321;50.428;8.378;2023-04-29T03:54:01;11.60;99.90
64855;DHT22;51321;50.428;8.378;2023-04-29T03:56:42;11.60;99.90
64855;DHT22;51321;50.428;8.378;2023-04-29T03:59:22;11.70;99.90
64855;DHT22;51321;50.428;8.378;2023-04-29T04:02:04;11.70;99.90
64855;DHT22;51321;50.428;8.378;2023-04-29T04:04:45;11.60;99.90
64855;DHT22;51321;50.428;8.378;2023-04-29T04:07:27;11.60;99.90
64855;DHT22;51321;50.428;8.378;2023-04-29T04:10:43;11.60;99.90
64855;DHT22;51321;50.428;8.378;2023-04-29T04:13:53;11.70;99.90
64855;DHT22;51321;50.428;8.378;2023-04-29T04:16:34;11.70;99.90
64855;DHT22;51321;50.428;8.378;2023-04-29T04:19:14;11.60;99.90
64855;DHT22;51321;50.428;8.378;2023-04-29T04:21:57;11.60;99.90
64855;DHT22;51321;50.428;8.378;2023-04-29T04:24:39;11.60;99.90
64855;DHT22;51321;50.428;8.378;2023-04-29T04:27:19;11.50;99.90
64855;DHT22;51321;50.428;8.378;2023-04-29T04:30:01;11.50;99.90
64855;DHT22;51321;50.428;8.378;2023-04-29T04:32:44;11.50;99.90
64855;DHT22;51321;50.428;8.378;2023-04-29T04:35:25;11.60;99.90
64855;DHT22;51321;50.428;8.378;2023-04-29T04:38:05;11.60;99.90
64855;DHT22;51321;50.428;8.378;2023-04-29T04:40:48;11.60;99.90
64855;DHT22;51321;50.428;8.378;2023-04-29T04:43:49;11.60;99.90
64855;DHT22;51321;50.428;8.378;2023-04-29T04:46:36;11.60;99.90
64855;DHT22;51321;50.428;8.378;2023-04-29T04:49:25;11.60;99.90
64855;DHT22;51321;50.428;8.378;2023-04-29T04:52:05;11.60;99.90
64855;DHT22;51321;50.428;8.378;2023-04-29T04:54:46;11.50;99.90
64855;DHT22;51321;50.428;8.378;2023-04-29T04:57:35;11.60;99.90
64855;DHT22;51321;50.428;8.378;2023-04-29T05:00:16;11.60;99.90
64855;DHT22;51321;50.428;8.378;2023-04-29T05:02:57;11.50;99.90
64855;DHT22;51321;50.428;8.378;2023-04-29T05:05:39;11.50;99.90
64855;DHT22;51321;50.428;8.378;2023-04-29T05:08:20;11.60;99.90
64855;DHT22;51321;50.428;8.378;2023-04-29T05:11:01;11.50;99.90
64855;DHT22;51321;50.428;8.378;2023-04-29T05:13:43;11.50;99.90
64855;DHT22;51321;50.428;8.378;2023-04-29T05:16:23;11.60;99.90
64855;DHT22;51321;50.428;8.378;2023-04-29T05:19:04;11.50;99.90
64855;DHT22;51321;50.428;8.378;2023-04-29T05:21:48;11.40;99.90
64855;DHT22;51321;50.428;8.378;2023-04-29T05:24:30;11.40;99.90
64855;DHT22;51321;50.428;8.378;2023-04-29T05:27:10;11.40;99.90
64855;DHT22;51321;50.428;8.378;2023-04-29T05:29:53;11.50;99.90
64855;DHT22;51321;50.428;8.378;2023-04-29T05:32:34;11.50;99.90
64855;DHT22;51321;50.428;8.378;2023-04-29T05:35:15;11.50;99.90
64855;DHT22;51321;50.428;8.378;2023-04-29T05:37:56;11.50;99.90
64855;DHT22;51321;50.428;8.378;2023-04-29T05:40:52;11.50;99.90
64855;DHT22;51321;50.428;8.378;2023-04-29T05:43:55;11.50;99.90
64855;DHT22;51321;50.428;8.378;2023-04-29T05:46:38;11.60;99.90
64855;DHT22;51321;50.428;8.378;2023-04-29T05:49:18;11.60;99.90
64855;DHT22;51321;50.428;8.378;2023-04-29T05:51:59;11.60;99.90
64855;DHT22;51321;50.428;8.378;2023-04-29T05:54:43;11.60;99.90
64855;DHT22;51321;50.428;8.378;2023-04-29T05:57:24;11.50;99.90
64855;DHT22;51321;50.428;8.378;2023-04-29T06:00:06;11.50;99.90
64855;DHT22;51321;50.428;8.378;2023-04-29T06:02:54;11.50;99.90
64855;DHT22;51321;50.428;8.378;2023-04-29T06:05:35;11.60;99.90
64855;DHT22;51321;50.428;8.378;2023-04-29T06:08:30;11.60;99.90
64855;DHT22;51321;50.428;8.378;2023-04-29T06:11:25;11.60;99.90
64855;DHT22;51321;50.428;8.378;2023-04-29T06:14:06;11.60;99.90
64855;DHT22;51321;50.428;8.378;2023-04-29T06:16:47;11.60;99.90
64855;DHT22;51321;50.428;8.378;2023-04-29T06:19:29;11.60;99.90
64855;DHT22;51321;50.428;8.378;2023-04-29T06:22:10;11.60;99.90
64855;DHT22;51321;50.428;8.378;2023-04-29T06:24:55;11.60;99.90
64855;DHT22;51321;50.428;8.378;2023-04-29T06:27:48;11.60;99.90
64855;DHT22;51321;50.428;8.378;2023-04-29T06:30:31;11.60;99.90
64855;DHT22;51321;50.428;8.378;2023-04-29T06:33:11;11.60;99.90
64855;DHT22;51321;50.428;8.378;2023-04-29T06:35:54;11.60;99.90
64855;DHT22;51321;50.428;8.378;2023-04-29T06:38:55;11.50;99.90
64855;DHT22;51321;50.428;8.378;2023-04-29T06:41:42;11.50;99.90
64855;DHT22;51321;50.428;8.378;2023-04-29T06:44:48;11.60;99.90
64855;DHT22;51321;50.428;8.378;2023-04-29T06:47:58;11.60;99.90
64855;DHT22;51321;50.428;8.378;2023-04-29T06:50:52;11.70;99.90
64855;DHT22;51321;50.428;8.378;2023-04-29T06:53:34;11.90;99.90
64855;DHT22;51321;50.428;8.378;2023-04-29T06:56:14;11.90;99.90
64855;DHT22;51321;50.428;8.378;2023-04-29T06:58:55;12.00;99.90
64855;DHT22;51321;50.428;8.378;2023-04-29T07:01:35;12.00;99.90
64855;DHT22;51321;50.428;8.378;2023-04-29T07:04:16;12.00;99.90
64855;DHT22;51321;50.428;8.378;2023-04-29T07:06:56;12.10;99.90
64855;DHT22;51321;50.428;8.378;2023-04-29T07:09:39;12.20;99.90
64855;DHT22;51321;50.428;8.378;2023-04-29T07:12:19;12.20;99.90
64855;DHT22;51321;50.428;8.378;2023-04-29T07:15:00;12.20;99.90
64855;DHT22;51321;50.428;8.378;2023-04-29T07:17:41;12.30;99.90
64855;DHT22;51321;50.428;8.378;2023-04-29T07:20:22;12.20;99.90
64855;DHT22;51321;50.428;8.378;2023-04-29T07:23:02;12.40;99.90
64855;DHT22;51321;50.428;8.378;2023-04-29T07:25:44;12.30;99.90
64855;DHT22;51321;50.428;8.378;2023-04-29T07:28:25;12.50;99.90
64855;DHT22;51321;50.428;8.378;2023-04-29T07:31:05;12.50;99.90
64855;DHT22;51321;50.428;8.378;2023-04-29T07:33:46;12.70;99.90
64855;DHT22;51321;50.428;8.378;2023-04-29T07:36:28;12.90;99.90
64855;DHT22;51321;50.428;8.378;2023-04-29T07:39:09;12.90;99.90
64855;DHT22;51321;50.428;8.378;2023-04-29T07:41:51;12.90;99.90
64855;DHT22;51321;50.428;8.378;2023-04-29T07:44:33;13.00;99.90
64855;DHT22;51321;50.428;8.378;2023-04-29T07:47:14;13.10;99.90
64855;DHT22;51321;50.428;8.378;2023-04-29T07:49:55;13.10;99.90
64855;DHT22;51321;50.428;8.378;2023-04-29T07:52:36;13.20;99.90
64855;DHT22;51321;50.428;8.378;2023-04-29T07:55:16;13.20;99.90
64855;DHT22;51321;50.428;8.378;2023-04-29T07:57:58;13.30;99.90
64855;DHT22;51321;50.428;8.378;2023-04-29T08:00:38;13.30;99.90
64855;DHT22;51321;50.428;8.378;2023-04-29T08:03:19;13.30;99.90
64855;DHT22;51321;50.428;8.378;2023-04-29T08:06:00;13.30;99.90
64855;DHT22;51321;50.428;8.378;2023-04-29T08:08:41;13.20;99.90
64855;DHT22;51321;50.428;8.378;2023-04-29T08:11:22;13.20;99.90
64855;DHT22;51321;50.428;8.378;2023-04-29T08:14:05;13.10;99.90
64855;DHT22;51321;50.428;8.378;2023-04-29T08:16:46;12.90;99.90
64855;DHT22;51321;50.428;8.378;2023-04-29T08:19:26;12.90;99.90
64855;DHT22;51321;50.428;8.378;2023-04-29T08:22:07;12.60;99.90
64855;DHT22;51321;50.428;8.378;2023-04-29T08:24:49;12.40;99.90
64855;DHT22;51321;50.428;8.378;2023-04-29T08:27:30;12.30;99.90
64855;DHT22;51321;50.428;8.378;2023-04-29T08:30:12;12.20;99.90
64855;DHT22;51321;50.428;8.378;2023-04-29T08:32:53;12.30;99.90
64855;DHT22;51321;50.428;8.378;2023-04-29T08:35:33;12.30;99.90
64855;DHT22;51321;50.428;8.378;2023-04-29T08:38:15;12.30;99.90
64855;DHT22;51321;50.428;8.378;2023-04-29T08:40:56;12.30;99.90
64855;DHT22;51321;50.428;8.378;2023-04-29T08:43:36;12.40;99.90
64855;DHT22;51321;50.428;8.378;2023-04-29T08:46:20;12.60;99.90
64855;DHT22;51321;50.428;8.378;2023-04-29T08:49:01;12.70;99.90
64855;DHT22;51321;50.428;8.378;2023-04-29T08:51:42;12.80;99.90
64855;DHT22;51321;50.428;8.378;2023-04-29T08:54:23;12.90;99.90
64855;DHT22;51321;50.428;8.378;2023-04-29T08:57:04;13.10;99.90
64855;DHT22;51321;50.428;8.378;2023-04-29T08:59:45;13.10;99.90
64855;DHT22;51321;50.428;8.378;2023-04-29T09:02:27;13.20;99.90
64855;DHT22;51321;50.428;8.378;2023-04-29T09:05:08;13.20;99.90
64855;DHT22;51321;50.428;8.378;2023-04-29T09:07:49;13.30;99.90
64855;DHT22;51321;50.428;8.378;2023-04-29T09:10:30;13.50;99.90
64855;DHT22;51321;50.428;8.378;2023-04-29T09:13:21;13.70;99.90
64855;DHT22;51321;50.428;8.378;2023-04-29T09:16:01;14.00;99.90
64855;DHT22;51321;50.428;8.378;2023-04-29T09:18:45;14.30;99.90
64855;DHT22;51321;50.428;8.378;2023-04-29T09:21:26;14.60;99.90
64855;DHT22;51321;50.428;8.378;2023-04-29T09:24:06;14.90;99.90
64855;DHT22;51321;50.428;8.378;2023-04-29T09:26:46;15.00;99.90
64855;DHT22;51321;50.428;8.378;2023-04-29T09:29:27;14.90;99.90
64855;DHT22;51321;50.428;8.378;2023-04-29T09:32:17;15.00;99.90
64855;DHT22;51321;50.428;8.378;2023-04-29T09:35:01;15.20;99.90
64855;DHT22;51321;50.428;8.378;2023-04-29T09:38:07;15.30;99.90
64855;DHT22;51321;50.428;8.378;2023-04-29T09:40:47;15.40;99.90
64855;DHT22;51321;50.428;8.378;2023-04-29T09:43:29;15.60;99.90
64855;DHT22;51321;50.428;8.378;2023-04-29T09:46:11;15.60;99.90
64855;DHT22;51321;50.428;8.378;2023-04-29T09:48:51;15.70;99.90
64855;DHT22;51321;50.428;8.378;2023-04-29T09:51:33;15.70;99.90
64855;DHT22;51321;50.428;8.378;2023-04-29T09:54:31;15.90;99.90
64855;DHT22;51321;50.428;8.378;2023-04-29T09:57:12;16.30;99.90
64855;DHT22;51321;50.428;8.378;2023-04-29T09:59:53;16.50;99.90
64855;DHT22;51321;50.428;8.378;2023-04-29T10:02:34;16.80;99.90
64855;DHT22;51321;50.428;8.378;2023-04-29T10:05:15;17.10;99.90
64855;DHT22;51321;50.428;8.378;2023-04-29T10:07:57;17.30;99.90
64855;DHT22;51321;50.428;8.378;2023-04-29T10:10:38;17.20;99.90
64855;DHT22;51321;50.428;8.378;2023-04-29T10:13:18;17.10;99.90
64855;DHT22;51321;50.428;8.378;2023-04-29T10:16:01;16.60;99.90
64855;DHT22;51321;50.428;8.378;2023-04-29T10:18:43;15.90;99.90
64855;DHT22;51321;50.428;8.378;2023-04-29T10:21:28;15.30;99.90
64855;DHT22;51321;50.428;8.378;2023-04-29T10:24:10;15.00;99.90
64855;DHT22;51321;50.428;8.378;2023-04-29T10:26:52;14.80;99.90
64855;DHT22;51321;50.428;8.378;2023-04-29T10:29:35;14.70;99.90
64855;DHT22;51321;50.428;8.378;2023-04-29T10:32:16;15.00;99.90
64855;DHT22;51321;50.428;8.378;2023-04-29T10:34:56;14.90;99.90
64855;DHT22;51321;50.428;8.378;2023-04-29T10:37:40;15.10;99.90
64855;DHT22;51321;50.428;8.378;2023-04-29T10:40:23;15.00;99.90
64855;DHT22;51321;50.428;8.378;2023-04-29T10:43:05;15.00;99.90
64855;DHT22;51321;50.428;8.378;2023-04-29T10:45:45;15.10;99.90
64855;DHT22;51321;50.428;8.378;2023-04-29T10:48:26;15.20;99.90
64855;DHT22;51321;50.428;8.378;2023-04-29T10:51:06;15.40;99.90
64855;DHT22;51321;50.428;8.378;2023-04-29T10:54:00;15.40;99.90
64855;DHT22;51321;50.428;8.378;2023-04-29T10:56:43;15.40;99.90
64855;DHT22;51321;50.428;8.378;2023-04-29T11:02:21;15.30;99.90
64855;DHT22;51321;50.428;8.378;2023-04-29T11:05:08;15.10;99.90
64855;DHT22;51321;50.428;8.378;2023-04-29T11:07:57;14.90;99.90
64855;DHT22;51321;50.428;8.378;2023-04-29T11:10:47;14.80;99.90
64855;DHT22;51321;50.428;8.378;2023-04-29T11:13:36;14.50;99.90
64855;DHT22;51321;50.428;8.378;2023-04-29T11:16:20;14.50;99.90
64855;DHT22;51321;50.428;8.378;2023-04-29T11:19:06;14.50;99.90
64855;DHT22;51321;50.428;8.378;2023-04-29T11:21:47;14.40;99.90
64855;DHT22;51321;50.428;8.378;2023-04-29T11:24:27;14.30;99.90
64855;DHT22;51321;50.428;8.378;2023-04-29T11:27:08;14.10;99.90
64855;DHT22;51321;50.428;8.378;2023-04-29T11:29:50;14.10;99.90
64855;DHT22;51321;50.428;8.378;2023-04-29T11:32:34;14.00;99.90
64855;DHT22;51321;50.428;8.378;2023-04-29T11:35:15;14.00;99.90
64855;DHT22;51321;50.428;8.378;2023-04-29T11:37:57;14.00;99.90
64855;DHT22;51321;50.428;8.378;2023-04-29T11:40:40;14.00;99.90
64855;DHT22;51321;50.428;8.378;2023-04-29T11:43:21;14.10;99.90
64855;DHT22;51321;50.428;8.378;2023-04-29T11:46:10;14.00;99.90
64855;DHT22;51321;50.428;8.378;2023-04-29T11:48:50;13.90;99.90
64855;DHT22;51321;50.428;8.378;2023-04-29T11:51:31;13.90;99.90
64855;DHT22;51321;50.428;8.378;2023-04-29T11:54:11;13.90;99.90
64855;DHT22;51321;50.428;8.378;2023-04-29T11:56:52;14.00;99.90
64855;DHT22;51321;50.428;8.378;2023-04-29T11:59:33;14.10;99.90
64855;DHT22;51321;50.428;8.378;2023-04-29T12:02:15;14.20;99.90
64855;DHT22;51321;50.428;8.378;2023-04-29T12:04:56;14.20;99.90
64855;DHT22;51321;50.428;8.378;2023-04-29T12:07:38;14.20;99.90
64855;DHT22;51321;50.428;8.378;2023-04-29T12:10:18;14.30;99.90
64855;DHT22;51321;50.428;8.378;2023-04-29T12:12:59;14.40;99.90
64855;DHT22;51321;50.428;8.378;2023-04-29T12:15:39;14.60;99.90
64855;DHT22;51321;50.428;8.378;2023-04-29T12:18:21;14.80;99.90
64855;DHT22;51321;50.428;8.378;2023-04-29T12:21:02;14.90;99.90
64855;DHT22;51321;50.428;8.378;2023-04-29T12:23:43;15.00;99.90
64855;DHT22;51321;50.428;8.378;2023-04-29T12:26:26;15.20;99.90
64855;DHT22;51321;50.428;8.378;2023-04-29T12:29:09;15.20;99.90
64855;DHT22;51321;50.428;8.378;2023-04-29T12:31:50;15.40;99.90
64855;DHT22;51321;50.428;8.378;2023-04-29T12:34:32;15.40;99.90
64855;DHT22;51321;50.428;8.378;2023-04-29T12:37:12;15.40;99.90
64855;DHT22;51321;50.428;8.378;2023-04-29T12:39:54;15.50;99.90
64855;DHT22;51321;50.428;8.378;2023-04-29T12:42:34;15.60;99.90
64855;DHT22;51321;50.428;8.378;2023-04-29T12:45:24;15.90;99.90
64855;DHT22;51321;50.428;8.378;2023-04-29T12:48:05;16.20;99.90
64855;DHT22;51321;50.428;8.378;2023-04-29T12:50:48;16.30;99.90
64855;DHT22;51321;50.428;8.378;2023-04-29T12:53:29;16.30;99.90
64855;DHT22;51321;50.428;8.378;2023-04-29T12:56:10;16.30;99.90
64855;DHT22;51321;50.428;8.378;2023-04-29T12:58:51;16.40;99.90
64855;DHT22;51321;50.428;8.378;2023-04-29T13:01:31;16.50;99.90
64855;DHT22;51321;50.428;8.378;2023-04-29T13:04:12;16.60;99.90
64855;DHT22;51321;50.428;8.378;2023-04-29T13:06:54;16.80;99.90
64855;DHT22;51321;50.428;8.378;2023-04-29T13:09:39;16.80;99.90
64855;DHT22;51321;50.428;8.378;2023-04-29T13:12:20;16.60;99.90
64855;DHT22;51321;50.428;8.378;2023-04-29T13:15:00;16.60;99.90
64855;DHT22;51321;50.428;8.378;2023-04-29T13:17:41;16.50;99.90
64855;DHT22;51321;50.428;8.378;2023-04-29T13:20:21;16.20;99.90
64855;DHT22;51321;50.428;8.378;2023-04-29T13:23:03;16.30;99.90
64855;DHT22;51321;50.428;8.378;2023-04-29T13:25:44;16.40;99.90
64855;DHT22;51321;50.428;8.378;2023-04-29T13:28:24;16.50;99.90
64855;DHT22;51321;50.428;8.378;2023-04-29T13:31:05;16.50;99.90
64855;DHT22;51321;50.428;8.378;2023-04-29T13:33:45;16.40;99.90
64855;DHT22;51321;50.428;8.378;2023-04-29T13:36:27;16.20;99.90
64855;DHT22;51321;50.428;8.378;2023-04-29T13:39:10;15.90;99.90
64855;DHT22;51321;50.428;8.378;2023-04-29T13:41:50;15.70;99.90
64855;DHT22;51321;50.428;8.378;2023-04-29T13:44:30;15.80;99.90
64855;DHT22;51321;50.428;8.378;2023-04-29T13:47:11;15.90;99.90
64855;DHT22;51321;50.428;8.378;2023-04-29T13:49:52;16.00;99.90
64855;DHT22;51321;50.428;8.378;2023-04-29T13:52:32;16.00;99.90
64855;DHT22;51321;50.428;8.378;2023-04-29T13:55:14;16.10;99.90
64855;DHT22;51321;50.428;8.378;2023-04-29T13:57:55;16.30;99.90
64855;DHT22;51321;50.428;8.378;2023-04-29T14:00:36;16.30;99.90
64855;DHT22;51321;50.428;8.378;2023-04-29T14:03:18;16.20;99.90
64855;DHT22;51321;50.428;8.378;2023-04-29T14:05:58;16.20;99.90
64855;DHT22;51321;50.428;8.378;2023-04-29T14:08:39;16.20;99.90
64855;DHT22;51321;50.428;8.378;2023-04-29T14:11:21;16.10;99.90
64855;DHT22;51321;50.428;8.378;2023-04-29T14:14:01;16.00;99.90
64855;DHT22;51321;50.428;8.378;2023-04-29T14:16:42;16.00;99.90
64855;DHT22;51321;50.428;8.378;2023-04-29T14:19:22;16.10;99.90
64855;DHT22;51321;50.428;8.378;2023-04-29T14:22:03;16.10;99.90
64855;DHT22;51321;50.428;8.378;2023-04-29T14:24:44;16.00;99.90
64855;DHT22;51321;50.428;8.378;2023-04-29T14:27:26;16.10;99.90
64855;DHT22;51321;50.428;8.378;2023-04-29T14:30:06;16.10;99.90
64855;DHT22;51321;50.428;8.378;2023-04-29T14:32:48;16.20;99.90
64855;DHT22;51321;50.428;8.378;2023-04-29T14:35:28;16.20;99.90
64855;DHT22;51321;50.428;8.378;2023-04-29T14:38:09;16.40;99.90
64855;DHT22;51321;50.428;8.378;2023-04-29T14:40:49;16.30;99.90
64855;DHT22;51321;50.428;8.378;2023-04-29T14:43:31;16.20;99.90
64855;DHT22;51321;50.428;8.378;2023-04-29T14:46:11;16.20;99.90
64855;DHT22;51321;50.428;8.378;2023-04-29T14:48:52;16.20;99.90
64855;DHT22;51321;50.428;8.378;2023-04-29T14:51:32;16.10;99.90
64855;DHT22;51321;50.428;8.378;2023-04-29T14:54:13;16.00;99.90
64855;DHT22;51321;50.428;8.378;2023-04-29T14:56:54;16.10;99.90
64855;DHT22;51321;50.428;8.378;2023-04-29T14:59:36;16.00;99.90
64855;DHT22;51321;50.428;8.378;2023-04-29T15:02:17;16.20;99.90
64855;DHT22;51321;50.428;8.378;2023-04-29T15:04:57;15.90;99.90
64855;DHT22;51321;50.428;8.378;2023-04-29T15:07:37;15.80;99.90
64855;DHT22;51321;50.428;8.378;2023-04-29T15:10:18;15.60;99.90
64855;DHT22;51321;50.428;8.378;2023-04-29T15:12:58;15.60;99.90
64855;DHT22;51321;50.428;8.378;2023-04-29T15:15:40;15.30;99.90
64855;DHT22;51321;50.428;8.378;2023-04-29T15:18:20;15.30;99.90
64855;DHT22;51321;50.428;8.378;2023-04-29T15:21:04;15.20;99.90
64855;DHT22;51321;50.428;8.378;2023-04-29T15:23:44;15.10;99.90
64855;DHT22;51321;50.428;8.378;2023-04-29T15:26:25;15.00;99.90
64855;DHT22;51321;50.428;8.378;2023-04-29T15:29:06;15.10;99.90
64855;DHT22;51321;50.428;8.378;2023-04-29T15:31:48;15.00;99.90
64855;DHT22;51321;50.428;8.378;2023-04-29T15:34:29;14.90;99.90
64855;DHT22;51321;50.428;8.378;2023-04-29T15:37:10;14.90;99.90
64855;DHT22;51321;50.428;8.378;2023-04-29T15:39:50;14.90;99.90
64855;DHT22;51321;50.428;8.378;2023-04-29T15:42:31;14.90;99.90
64855;DHT22;51321;50.428;8.378;2023-04-29T15:45:12;14.80;99.90
64855;DHT22;51321;50.428;8.378;2023-04-29T15:47:57;14.60;99.90
64855;DHT22;51321;50.428;8.378;2023-04-29T15:50:37;14.60;99.90
64855;DHT22;51321;50.428;8.378;2023-04-29T15:53:17;14.60;99.90
64855;DHT22;51321;50.428;8.378;2023-04-29T15:55:58;14.50;99.90
64855;DHT22;51321;50.428;8.378;2023-04-29T15:58:39;14.50;99.90
64855;DHT22;51321;50.428;8.378;2023-04-29T16:01:20;14.60;99.90
64855;DHT22;51321;50.428;8.378;2023-04-29T16:04:01;14.50;99.90
64855;DHT22;51321;50.428;8.378;2023-04-29T16:06:42;14.50;99.90
64855;DHT22;51321;50.428;8.378;2023-04-29T16:09:23;14.30;99.90
64855;DHT22;51321;50.428;8.378;2023-04-29T16:12:04;14.10;99.90
64855;DHT22;51321;50.428;8.378;2023-04-29T16:14:44;14.00;99.90
64855;DHT22;51321;50.428;8.378;2023-04-29T16:17:24;14.00;99.90
64855;DHT22;51321;50.428;8.378;2023-04-29T16:20:07;14.00;99.90
64855;DHT22;51321;50.428;8.378;2023-04-29T16:22:47;14.10;99.90
64855;DHT22;51321;50.428;8.378;2023-04-29T16:25:28;14.10;99.90
64855;DHT22;51321;50.428;8.378;2023-04-29T16:28:08;14.10;99.90
64855;DHT22;51321;50.428;8.378;2023-04-29T16:30:49;14.20;99.90
64855;DHT22;51321;50.428;8.378;2023-04-29T16:33:30;14.10;99.90
64855;DHT22;51321;50.428;8.378;2023-04-29T16:36:12;14.10;99.90
64855;DHT22;51321;50.428;8.378;2023-04-29T16:38:53;14.10;99.90
64855;DHT22;51321;50.428;8.378;2023-04-29T16:41:33;14.00;99.90
64855;DHT22;51321;50.428;8.378;2023-04-29T16:44:15;13.90;99.90
64855;DHT22;51321;50.428;8.378;2023-04-29T16:46:55;13.90;99.90
64855;DHT22;51321;50.428;8.378;2023-04-29T16:49:36;13.80;99.90
64855;DHT22;51321;50.428;8.378;2023-04-29T16:52:18;13.80;99.90
64855;DHT22;51321;50.428;8.378;2023-04-29T16:54:59;13.90;99.90
64855;DHT22;51321;50.428;8.378;2023-04-29T16:57:39;13.80;99.90
64855;DHT22;51321;50.428;8.378;2023-04-29T17:00:20;13.80;99.90
64855;DHT22;51321;50.428;8.378;2023-04-29T17:03:00;13.70;99.90
64855;DHT22;51321;50.428;8.378;2023-04-29T17:05:42;13.60;99.90
64855;DHT22;51321;50.428;8.378;2023-04-29T17:08:24;13.40;99.90